createdAt,value
2023-03-31T00:00:30.974Z,100831.22
2023-03-31T00:03:01.090Z,100829.44
2023-03-31T00:05:28.993Z,100825.13
2023-03-31T00:08:01.122Z,100830.25
2023-03-31T00:10:28.854Z,100834.50
2023-03-31T00:12:56.685Z,100836.38
2023-03-31T00:15:24.281Z,100830.34
2023-03-31T00:17:52.050Z,100828.69
2023-03-31T00:20:20.051Z,100826.94
2023-03-31T00:22:47.739Z,100823.56
2023-03-31T00:25:17.519Z,100822.75
2023-03-31T00:27:45.667Z,100811.69
2023-03-31T00:30:14.360Z,100811.66
2023-03-31T00:32:42.134Z,100807.47
2023-03-31T00:35:12.613Z,100804.13
2023-03-31T00:37:40.334Z,100816.34
2023-03-31T00:40:10.238Z,100810.44
2023-03-31T00:42:42.520Z,100812.22
2023-03-31T00:45:24.212Z,100811.47
2023-03-31T00:47:54.191Z,100809.78
2023-03-31T00:50:23.568Z,100808.16
2023-03-31T00:52:55.951Z,100798.78
2023-03-31T00:55:25.381Z,100803.22
2023-03-31T00:57:55.303Z,100796.59
2023-03-31T01:00:24.213Z,100796.06
2023-03-31T01:02:56.130Z,100788.41
2023-03-31T01:05:25.248Z,100791.88
2023-03-31T01:07:54.322Z,100793.53
2023-03-31T01:10:22.615Z,100789.47
2023-03-31T01:12:52.867Z,100785.19
2023-03-31T01:15:22.317Z,100785.16
2023-03-31T01:17:51.105Z,100786.00
2023-03-31T01:20:23.161Z,100782.59
2023-03-31T01:23:11.881Z,100790.28
2023-03-31T01:25:55.552Z,100780.03
2023-03-31T01:28:27.727Z,100780.06
2023-03-31T01:31:16.983Z,100780.13
2023-03-31T01:34:08.683Z,100779.38
2023-03-31T01:36:54.801Z,100776.00
2023-03-31T01:39:35.873Z,100774.50
2023-03-31T01:42:08.515Z,100775.38
2023-03-31T01:44:44.072Z,100775.44
2023-03-31T01:47:18.310Z,100775.44
2023-03-31T01:49:48.627Z,100774.66
2023-03-31T01:52:20.504Z,100766.22
2023-03-31T01:54:54.218Z,100769.47
2023-03-31T01:57:28.992Z,100763.50
2023-03-31T02:00:00.562Z,100766.13
2023-03-31T02:02:29.740Z,100764.44
2023-03-31T02:05:00.669Z,100768.72
2023-03-31T02:07:31.064Z,100767.97
2023-03-31T02:10:00.471Z,100768.00
2023-03-31T02:12:32.502Z,100773.13
2023-03-31T02:15:02.027Z,100768.88
2023-03-31T02:17:30.644Z,100769.78
2023-03-31T02:19:59.425Z,100766.44
2023-03-31T02:22:28.672Z,100764.81
2023-03-31T02:24:57.122Z,100769.03
2023-03-31T02:27:26.881Z,100764.78
2023-03-31T02:29:56.447Z,100758.84
2023-03-31T02:32:25.893Z,100763.09
2023-03-31T02:34:53.640Z,100771.66
2023-03-31T02:37:21.779Z,100772.50
2023-03-31T02:39:51.478Z,100769.91
2023-03-31T02:42:19.521Z,100769.91
2023-03-31T02:44:47.512Z,100766.47
2023-03-31T02:47:17.527Z,100768.13
2023-03-31T02:49:47.341Z,100769.00
2023-03-31T02:52:29.873Z,100765.56
2023-03-31T02:55:10.710Z,100764.72
2023-03-31T02:57:57.893Z,100772.41
2023-03-31T03:00:35.952Z,100771.56
2023-03-31T03:03:15.414Z,100759.63
2023-03-31T03:05:50.625Z,100768.16
2023-03-31T03:08:21.800Z,100765.63
2023-03-31T03:10:55.844Z,100771.69
2023-03-31T03:13:28.168Z,100768.22
2023-03-31T03:15:59.936Z,100762.31
2023-03-31T03:18:29.275Z,100761.50
2023-03-31T03:20:56.972Z,100766.66
2023-03-31T03:23:24.686Z,100764.97
2023-03-31T03:25:52.303Z,100766.69
2023-03-31T03:28:20.009Z,100761.59
2023-03-31T03:30:47.686Z,100765.88
2023-03-31T03:33:17.054Z,100767.63
2023-03-31T03:35:46.369Z,100765.13
2023-03-31T03:38:14.008Z,100768.56
2023-03-31T03:40:41.677Z,100774.50
2023-03-31T03:43:09.341Z,100772.81
2023-03-31T03:45:36.996Z,100773.69
2023-03-31T03:48:04.886Z,100769.44
2023-03-31T03:50:32.604Z,100763.47
2023-03-31T03:53:01.749Z,100767.75
2023-03-31T03:55:29.495Z,100755.88
2023-03-31T03:57:57.140Z,100757.56
2023-03-31T04:00:24.847Z,100758.50
2023-03-31T04:02:52.561Z,100754.22
2023-03-31T04:05:20.671Z,100754.22
2023-03-31T04:07:48.360Z,100755.09
2023-03-31T04:10:17.504Z,100764.47
2023-03-31T04:12:45.243Z,100769.56
2023-03-31T04:15:12.951Z,100767.78
2023-03-31T04:17:40.699Z,100778.03
2023-03-31T04:20:10.196Z,100772.88
2023-03-31T04:22:40.848Z,100782.34
2023-03-31T04:25:14.790Z,100779.03
2023-03-31T04:27:46.786Z,100779.84
2023-03-31T04:30:23.057Z,100780.72
2023-03-31T04:32:51.483Z,100773.06
2023-03-31T04:35:20.721Z,100774.81
2023-03-31T04:37:48.764Z,100774.81
2023-03-31T04:40:17.232Z,100774.00
2023-03-31T04:42:46.274Z,100776.59
2023-03-31T04:45:14.071Z,100776.59
2023-03-31T04:47:42.470Z,100778.31
2023-03-31T04:50:14.499Z,100768.06
2023-03-31T04:52:43.947Z,100772.34
2023-03-31T04:55:11.648Z,100774.97
2023-03-31T04:57:39.419Z,100770.69
2023-03-31T05:00:09.757Z,100774.91
2023-03-31T05:02:37.436Z,100779.94
2023-03-31T05:05:06.067Z,100777.28
2023-03-31T05:07:33.913Z,100770.50
2023-03-31T05:10:01.721Z,100773.91
2023-03-31T05:12:29.424Z,100777.28
2023-03-31T05:14:57.152Z,100777.16
2023-03-31T05:17:26.233Z,100781.44
2023-03-31T05:19:53.880Z,100778.78
2023-03-31T05:22:21.541Z,100771.03
2023-03-31T05:24:49.199Z,100782.00
2023-03-31T05:27:17.081Z,100780.25
2023-03-31T05:29:44.992Z,100775.88
2023-03-31T05:32:12.689Z,100776.66
2023-03-31T05:34:43.258Z,100775.72
2023-03-31T05:37:10.935Z,100767.09
2023-03-31T05:39:38.553Z,100778.09
2023-03-31T05:42:07.668Z,100773.81
2023-03-31T05:44:35.682Z,100766.88
2023-03-31T05:47:03.322Z,100771.91
2023-03-31T05:49:30.931Z,100765.94
2023-03-31T05:52:00.047Z,100763.34
2023-03-31T05:54:28.333Z,100774.44
2023-03-31T05:56:56.050Z,100760.00
2023-03-31T05:59:23.692Z,100770.16
2023-03-31T06:01:51.485Z,100776.94
2023-03-31T06:04:19.244Z,100776.00
2023-03-31T06:06:50.279Z,100778.53
2023-03-31T06:09:19.388Z,100781.94
2023-03-31T06:11:48.848Z,100766.53
2023-03-31T06:14:18.073Z,100771.63
2023-03-31T06:16:47.680Z,100773.25
2023-03-31T06:19:15.508Z,100768.03
2023-03-31T06:21:43.198Z,100767.03
2023-03-31T06:24:11.344Z,100770.22
2023-03-31T06:26:40.403Z,100765.84
2023-03-31T06:29:08.571Z,100766.69
2023-03-31T06:31:36.524Z,100762.25
2023-03-31T06:34:04.270Z,100761.28
2023-03-31T06:36:32.020Z,100771.25
2023-03-31T06:38:59.768Z,100766.72
2023-03-31T06:41:27.480Z,100764.50
2023-03-31T06:43:56.673Z,100763.75
2023-03-31T06:46:24.358Z,100760.50
2023-03-31T06:48:51.998Z,100769.59
2023-03-31T06:51:19.700Z,100766.28
2023-03-31T06:53:47.416Z,100771.88
2023-03-31T06:56:15.100Z,100774.25
2023-03-31T06:58:45.907Z,100783.94
2023-03-31T07:01:15.033Z,100782.97
2023-03-31T07:03:42.842Z,100780.84
2023-03-31T07:06:10.638Z,100777.69
2023-03-31T07:08:38.304Z,100776.09
2023-03-31T07:11:06.564Z,100780.50
2023-03-31T07:13:34.509Z,100780.66
2023-03-31T07:16:02.226Z,100786.56
2023-03-31T07:18:35.549Z,100784.16
2023-03-31T07:21:04.980Z,100780.59
2023-03-31T07:23:34.836Z,100781.47
2023-03-31T07:26:02.918Z,100787.63
2023-03-31T07:28:30.919Z,100781.72
2023-03-31T07:30:58.733Z,100799.84
2023-03-31T07:33:26.458Z,100791.31
2023-03-31T07:36:08.322Z,100790.53
2023-03-31T07:38:39.249Z,100798.19
2023-03-31T07:41:09.594Z,100801.78
2023-03-31T07:43:37.997Z,100804.41
2023-03-31T07:46:07.820Z,100800.91
2023-03-31T07:48:35.676Z,100801.09
2023-03-31T07:51:04.982Z,100806.19
2023-03-31T07:53:32.883Z,100809.47
2023-03-31T07:56:00.506Z,100810.22
2023-03-31T07:58:28.285Z,100808.41
2023-03-31T08:00:55.968Z,100811.66
2023-03-31T08:03:23.614Z,100815.63
2023-03-31T08:05:52.496Z,100812.97
2023-03-31T08:08:21.696Z,100815.38
2023-03-31T08:10:49.520Z,100810.06
2023-03-31T08:13:17.539Z,100816.78
2023-03-31T08:15:45.463Z,100808.81
2023-03-31T08:18:13.253Z,100809.59
2023-03-31T08:20:41.083Z,100806.84
2023-03-31T08:23:11.439Z,100805.00
2023-03-31T08:25:40.554Z,100799.78
2023-03-31T08:28:10.827Z,100805.84
2023-03-31T08:30:39.097Z,100799.03
2023-03-31T08:33:07.810Z,100805.81
2023-03-31T08:35:36.186Z,100800.53
2023-03-31T08:38:03.822Z,100804.88
2023-03-31T08:40:32.195Z,100805.03
2023-03-31T08:43:03.532Z,100808.38
2023-03-31T08:45:33.393Z,100810.84
2023-03-31T08:48:06.630Z,100809.97
2023-03-31T08:50:36.648Z,100812.56
2023-03-31T08:53:06.359Z,100807.44
2023-03-31T08:55:38.600Z,100810.84
2023-03-31T08:58:10.784Z,100803.84
2023-03-31T09:00:41.592Z,100806.47
2023-03-31T09:03:15.225Z,100803.47
2023-03-31T09:05:59.644Z,100811.84
2023-03-31T09:08:36.181Z,100806.56
2023-03-31T09:11:13.179Z,100814.97
2023-03-31T09:13:59.681Z,100809.59
2023-03-31T09:16:34.693Z,100811.94
2023-03-31T09:19:03.127Z,100812.63
2023-03-31T09:21:33.518Z,100805.66
2023-03-31T09:24:03.589Z,100803.91
2023-03-31T09:26:35.904Z,100801.16
2023-03-31T09:29:06.650Z,100804.34
2023-03-31T09:31:36.246Z,100798.00
2023-03-31T09:34:13.511Z,100803.81
2023-03-31T09:36:41.187Z,100810.66
2023-03-31T09:39:11.153Z,100802.81
2023-03-31T09:41:39.412Z,100809.06
2023-03-31T09:44:14.819Z,100796.81
2023-03-31T09:46:44.121Z,100799.13
2023-03-31T09:49:13.578Z,100802.47
2023-03-31T09:51:43.873Z,100795.56
2023-03-31T09:54:14.695Z,100795.34
2023-03-31T09:56:50.435Z,100802.47
2023-03-31T09:59:19.097Z,100792.56
2023-03-31T10:01:50.654Z,100795.25
2023-03-31T10:04:20.809Z,100801.25
2023-03-31T10:06:49.023Z,100803.97
2023-03-31T10:09:17.987Z,100808.25
2023-03-31T10:11:56.615Z,100805.78
2023-03-31T10:14:29.162Z,100801.34
2023-03-31T10:16:58.832Z,100804.72
2023-03-31T10:19:28.172Z,100801.38
2023-03-31T10:21:59.643Z,100807.34
2023-03-31T10:24:28.560Z,100800.41
2023-03-31T10:26:57.016Z,100797.00
2023-03-31T10:29:31.609Z,100798.63
2023-03-31T10:32:04.740Z,100793.28
2023-03-31T10:34:33.329Z,100797.28
2023-03-31T10:37:01.102Z,100801.47
2023-03-31T10:39:32.272Z,100791.97
2023-03-31T10:42:00.912Z,100789.28
2023-03-31T10:44:32.237Z,100789.09
2023-03-31T10:47:06.721Z,100793.25
2023-03-31T10:49:39.717Z,100796.41
2023-03-31T10:52:16.129Z,100790.97
2023-03-31T10:54:50.159Z,100794.34
2023-03-31T10:57:19.266Z,100800.53
2023-03-31T10:59:58.767Z,100800.69
2023-03-31T11:02:43.173Z,100804.16
2023-03-31T11:05:15.554Z,100803.09
2023-03-31T11:07:54.401Z,100802.06
2023-03-31T11:10:33.781Z,100802.91
2023-03-31T11:13:05.877Z,100806.28
2023-03-31T11:15:39.472Z,100800.09
2023-03-31T11:18:27.699Z,100793.91
2023-03-31T11:20:59.706Z,100802.31
2023-03-31T11:23:33.102Z,100800.53
2023-03-31T11:26:03.897Z,100795.31
2023-03-31T11:28:37.199Z,100793.34
2023-03-31T11:31:11.718Z,100788.94
2023-03-31T11:33:50.333Z,100790.66
2023-03-31T11:36:32.677Z,100790.63
2023-03-31T11:39:03.773Z,100791.19
2023-03-31T11:41:35.461Z,100786.09
2023-03-31T11:44:05.454Z,100779.31
2023-03-31T11:46:36.991Z,100785.94
2023-03-31T11:49:10.149Z,100780.72
2023-03-31T11:51:44.395Z,100781.28
2023-03-31T11:54:17.261Z,100784.75
2023-03-31T11:56:45.107Z,100782.06
2023-03-31T11:59:15.513Z,100770.91
2023-03-31T12:01:45.863Z,100773.44
2023-03-31T12:04:21.036Z,100772.66
2023-03-31T12:06:50.184Z,100766.34
2023-03-31T12:09:23.253Z,100769.03
2023-03-31T12:11:54.819Z,100770.75
2023-03-31T12:14:25.121Z,100769.84
2023-03-31T12:16:54.057Z,100757.91
2023-03-31T12:19:27.720Z,100771.69
2023-03-31T12:21:57.799Z,100762.88
2023-03-31T12:24:25.485Z,100759.41
2023-03-31T12:26:57.664Z,100762.75
2023-03-31T12:29:29.605Z,100765.06
2023-03-31T12:31:58.570Z,100761.41
2023-03-31T12:34:28.864Z,100759.59
2023-03-31T12:37:05.116Z,100765.78
2023-03-31T12:39:39.297Z,100771.06
2023-03-31T12:42:33.884Z,100768.59
2023-03-31T12:45:07.714Z,100765.28
2023-03-31T12:47:43.212Z,100771.28
2023-03-31T12:50:19.723Z,100760.91
2023-03-31T12:52:53.008Z,100764.41
2023-03-31T12:55:38.493Z,100765.22
2023-03-31T12:58:24.987Z,100768.66
2023-03-31T13:01:07.459Z,100760.06
2023-03-31T13:03:41.592Z,100772.31
2023-03-31T13:06:11.412Z,100768.22
2023-03-31T13:08:52.877Z,100770.59
2023-03-31T13:11:21.359Z,100773.31
2023-03-31T13:16:47.344Z,100760.59
2023-03-31T13:19:28.213Z,100765.00
2023-03-31T13:21:58.321Z,100774.31
2023-03-31T13:24:26.758Z,100769.03
2023-03-31T13:26:56.735Z,100765.38
2023-03-31T13:29:25.272Z,100766.91
2023-03-31T13:32:11.193Z,100763.59
2023-03-31T13:34:41.732Z,100763.53
2023-03-31T13:37:16.641Z,100767.09
2023-03-31T13:39:56.336Z,100772.09
2023-03-31T13:42:37.419Z,100772.09
2023-03-31T13:45:11.853Z,100776.28
2023-03-31T13:47:44.768Z,100765.97
2023-03-31T13:50:27.318Z,100777.94
2023-03-31T13:53:00.141Z,100773.59
2023-03-31T13:55:48.025Z,100772.56
2023-03-31T13:58:33.741Z,100771.81
2023-03-31T14:01:17.232Z,100771.84
2023-03-31T14:03:55.181Z,100768.38
2023-03-31T14:06:27.163Z,100770.25
2023-03-31T14:08:58.594Z,100775.44
2023-03-31T14:11:28.366Z,100774.38
2023-03-31T14:14:03.768Z,100778.63
2023-03-31T14:16:33.791Z,100772.44
2023-03-31T14:19:07.186Z,100777.78
2023-03-31T14:21:38.694Z,100780.38
2023-03-31T14:24:12.052Z,100776.28
2023-03-31T14:26:46.943Z,100780.47
2023-03-31T14:29:20.710Z,100777.91
2023-03-31T14:31:54.603Z,100775.31
2023-03-31T14:34:30.866Z,100781.50
2023-03-31T14:37:00.471Z,100784.13
2023-03-31T14:39:31.756Z,100785.81
2023-03-31T14:42:01.517Z,100783.13
2023-03-31T14:44:29.817Z,100786.50
2023-03-31T14:46:57.958Z,100786.50
2023-03-31T14:49:27.583Z,100791.53
2023-03-31T14:51:56.242Z,100789.13
2023-03-31T14:54:23.842Z,100789.06
2023-03-31T14:56:55.079Z,100786.78
2023-03-31T14:59:24.227Z,100795.16
2023-03-31T15:01:52.173Z,100793.38
2023-03-31T15:04:31.791Z,100797.94
2023-03-31T15:07:05.051Z,100796.25
2023-03-31T15:09:34.794Z,100799.91
2023-03-31T15:12:05.466Z,100800.06
2023-03-31T15:14:34.753Z,100804.56
2023-03-31T15:17:02.518Z,100800.97
2023-03-31T15:19:31.596Z,100807.75
2023-03-31T15:22:04.712Z,100813.75
2023-03-31T15:24:32.665Z,100808.72
2023-03-31T15:27:03.224Z,100813.09
2023-03-31T15:29:35.691Z,100815.00
2023-03-31T15:32:04.848Z,100818.41
2023-03-31T15:34:34.172Z,100824.34
2023-03-31T15:37:02.497Z,100820.16
2023-03-31T15:39:32.639Z,100825.28
2023-03-31T15:42:02.028Z,100823.84
2023-03-31T15:44:31.129Z,100829.09
2023-03-31T15:47:07.250Z,100827.63
2023-03-31T15:49:35.644Z,100825.84
2023-03-31T15:52:03.367Z,100830.16
2023-03-31T15:54:32.864Z,100831.28
2023-03-31T15:57:01.330Z,100835.53
2023-03-31T15:59:37.869Z,100841.69
2023-03-31T16:02:17.513Z,100840.16
2023-03-31T16:04:48.474Z,100837.47
2023-03-31T16:07:18.215Z,100850.47
2023-03-31T16:09:47.960Z,100855.00
2023-03-31T16:12:19.285Z,100848.78
2023-03-31T16:14:48.152Z,100854.06
2023-03-31T16:17:23.758Z,100858.50
2023-03-31T16:19:53.929Z,100861.06
2023-03-31T16:22:23.673Z,100853.53
2023-03-31T16:24:51.856Z,100857.13
2023-03-31T16:27:19.741Z,100865.06
2023-03-31T16:29:48.149Z,100862.63
2023-03-31T16:32:18.385Z,100871.38
2023-03-31T16:34:56.797Z,100874.03
2023-03-31T16:37:24.904Z,100878.53
2023-03-31T16:39:52.642Z,100884.69
2023-03-31T16:42:20.776Z,100879.69
2023-03-31T16:44:59.846Z,100883.19
2023-03-31T16:47:36.059Z,100882.53
2023-03-31T16:50:07.467Z,100881.19
2023-03-31T16:52:35.878Z,100880.47
2023-03-31T16:55:03.594Z,100884.25
2023-03-31T16:57:32.313Z,100888.59
2023-03-31T17:00:00.631Z,100886.06
2023-03-31T17:02:28.388Z,100902.56
2023-03-31T17:05:06.227Z,100895.13
2023-03-31T17:07:39.547Z,100897.72
2023-03-31T17:10:08.017Z,100905.78
2023-03-31T17:12:35.895Z,100904.28
2023-03-31T17:15:03.655Z,100905.25
2023-03-31T17:17:31.849Z,100908.91
2023-03-31T17:20:00.962Z,100910.84
2023-03-31T17:22:28.645Z,100906.72
2023-03-31T17:24:58.605Z,100910.25
2023-03-31T17:27:27.390Z,100910.38
2023-03-31T17:29:55.452Z,100914.00
2023-03-31T17:32:23.771Z,100920.06
2023-03-31T17:34:51.561Z,100917.50
2023-03-31T17:37:21.302Z,100926.16
2023-03-31T17:39:48.979Z,100925.41
2023-03-31T17:42:16.865Z,100926.31
2023-03-31T17:44:50.103Z,100924.72
2023-03-31T17:47:18.224Z,100929.84
2023-03-31T17:49:46.071Z,100930.81
2023-03-31T17:52:13.762Z,100930.03
2023-03-31T17:54:43.590Z,100923.28
2023-03-31T17:57:11.397Z,100941.50
2023-03-31T17:59:39.208Z,100935.63
2023-03-31T18:02:06.955Z,100937.47
2023-03-31T18:04:34.902Z,100940.91
2023-03-31T18:07:02.615Z,100941.03
2023-03-31T18:09:30.299Z,100941.16
2023-03-31T18:11:59.757Z,100943.81
2023-03-31T18:14:27.713Z,100944.78
2023-03-31T18:16:55.567Z,100945.75
2023-03-31T18:19:24.138Z,100941.59
2023-03-31T18:21:52.221Z,100947.69
2023-03-31T18:24:20.391Z,100943.59
2023-03-31T18:26:48.219Z,100943.69
2023-03-31T18:29:17.289Z,100945.47
2023-03-31T18:31:45.063Z,100943.84
2023-03-31T18:34:13.583Z,100946.78
2023-03-31T18:36:41.348Z,100954.69
2023-03-31T18:39:09.267Z,100950.44
2023-03-31T18:41:37.218Z,100956.53
2023-03-31T18:44:05.608Z,100954.78
2023-03-31T18:46:34.759Z,100965.16
2023-03-31T18:49:02.447Z,100954.19
2023-03-31T18:51:30.124Z,100960.31
2023-03-31T18:53:57.795Z,100974.09
2023-03-31T18:56:25.494Z,100970.69
2023-03-31T18:58:53.167Z,100962.94
2023-03-31T19:01:21.565Z,100976.72
2023-03-31T19:03:50.701Z,100969.19
2023-03-31T19:06:21.048Z,100966.72
2023-03-31T19:08:48.900Z,100969.50
2023-03-31T19:11:17.308Z,100976.44
2023-03-31T19:13:45.437Z,100983.44
2023-03-31T19:16:13.679Z,100981.84
2023-03-31T19:18:42.270Z,100982.03
2023-03-31T19:21:11.904Z,100988.03
2023-03-31T19:23:39.752Z,100988.88
2023-03-31T19:26:08.115Z,100989.66
2023-03-31T19:28:35.812Z,100991.34
2023-03-31T19:31:04.153Z,100991.34
2023-03-31T19:33:31.810Z,100999.09
2023-03-31T19:35:59.650Z,101005.94
2023-03-31T19:38:32.071Z,100993.22
2023-03-31T19:41:00.079Z,100995.97
2023-03-31T19:43:29.455Z,100999.44
2023-03-31T19:45:59.000Z,101007.22
2023-03-31T19:48:27.253Z,101009.00
2023-03-31T19:50:55.911Z,101009.09
2023-03-31T19:53:24.136Z,101010.88
2023-03-31T19:56:00.692Z,101013.50
2023-03-31T19:58:28.805Z,101007.59
2023-03-31T20:00:56.860Z,101003.34
2023-03-31T20:03:25.939Z,101016.16
2023-03-31T20:05:54.641Z,101012.03
2023-03-31T20:08:22.472Z,101007.00
2023-03-31T20:10:50.451Z,101007.94
2023-03-31T20:13:19.602Z,101007.13
2023-03-31T20:15:47.333Z,101006.34
2023-03-31T20:18:15.000Z,101006.44
2023-03-31T20:20:43.092Z,100999.69
2023-03-31T20:23:11.072Z,101008.34
2023-03-31T20:25:38.785Z,101008.41
2023-03-31T20:28:06.432Z,101008.44
2023-03-31T20:30:35.575Z,101007.66
2023-03-31T20:33:03.350Z,101008.56
2023-03-31T20:35:31.480Z,101012.00
2023-03-31T20:37:59.244Z,101008.69
2023-03-31T20:40:27.813Z,101004.59
2023-03-31T20:42:55.495Z,101009.81
2023-03-31T20:45:23.401Z,101013.28
2023-03-31T20:47:52.458Z,101007.34
2023-03-31T20:50:22.901Z,101009.13
2023-03-31T20:52:50.858Z,101001.59
2023-03-31T20:55:18.844Z,101005.00
2023-03-31T20:57:46.614Z,101005.00
2023-03-31T21:00:15.492Z,101006.75
2023-03-31T21:02:43.195Z,101007.59
2023-03-31T21:05:12.442Z,101017.81
2023-03-31T21:07:40.047Z,101017.84
2023-03-31T21:10:08.117Z,101013.63
2023-03-31T21:12:37.205Z,101011.97
2023-03-31T21:15:05.650Z,101013.66
2023-03-31T21:17:33.319Z,101019.63
2023-03-31T21:20:01.075Z,101015.41
2023-03-31T21:22:30.206Z,101021.31
2023-03-31T21:24:57.852Z,101017.94
2023-03-31T21:27:25.583Z,101020.50
2023-03-31T21:29:53.284Z,101026.44
2023-03-31T21:32:21.109Z,101020.53
2023-03-31T21:34:48.877Z,101032.44
2023-03-31T21:37:16.532Z,101032.50
2023-03-31T21:39:46.460Z,101031.66
2023-03-31T21:42:14.151Z,101029.16
2023-03-31T21:44:42.447Z,101034.38
2023-03-31T21:47:10.099Z,101028.44
2023-03-31T21:49:37.988Z,101032.69
2023-03-31T21:52:06.503Z,101032.72
2023-03-31T21:54:34.238Z,101035.28
2023-03-31T21:57:03.403Z,101042.09
2023-03-31T21:59:31.221Z,101033.59
2023-03-31T22:01:59.134Z,101037.84
2023-03-31T22:04:26.957Z,101040.41
2023-03-31T22:06:54.589Z,101036.16
2023-03-31T22:09:22.213Z,101043.81
2023-03-31T22:11:50.002Z,101042.97
2023-03-31T22:14:19.082Z,101045.50
2023-03-31T22:16:46.772Z,101048.94
2023-03-31T22:19:14.451Z,101046.41
2023-03-31T22:21:43.791Z,101048.94
2023-03-31T22:24:12.721Z,101051.50
2023-03-31T22:26:43.493Z,101060.06
2023-03-31T22:29:14.547Z,101055.84
2023-03-31T22:31:43.702Z,101060.06
2023-03-31T22:34:15.535Z,101055.84
2023-03-31T22:36:43.171Z,101059.25
2023-03-31T22:39:10.783Z,101060.94
2023-03-31T22:41:38.540Z,101064.34
2023-03-31T22:44:06.272Z,101066.03
2023-03-31T22:46:33.937Z,101063.47
2023-03-31T22:49:05.734Z,101066.88
2023-03-31T22:51:34.602Z,101068.56
2023-03-31T22:54:02.240Z,101066.88
2023-03-31T22:56:29.943Z,101065.16
2023-03-31T22:58:58.294Z,101063.47
2023-03-31T23:01:26.250Z,101075.34
2023-03-31T23:03:55.170Z,101066.88
2023-03-31T23:06:24.376Z,101072.78
2023-03-31T23:08:52.000Z,101075.34
2023-03-31T23:11:19.915Z,101071.09
2023-03-31T23:13:48.053Z,101077.03
2023-03-31T23:16:18.377Z,101080.41
2023-03-31T23:18:47.666Z,101079.59
2023-03-31T23:21:16.971Z,101081.28
2023-03-31T23:23:46.477Z,101077.06
2023-03-31T23:26:15.827Z,101082.16
2023-03-31T23:28:43.851Z,101079.63
2023-03-31T23:31:13.334Z,101081.31
2023-03-31T23:33:41.255Z,101076.22
2023-03-31T23:36:09.486Z,101077.91
2023-03-31T23:38:37.527Z,101082.16
2023-03-31T23:41:07.755Z,101079.63
2023-03-31T23:43:35.455Z,101087.25
2023-03-31T23:46:04.885Z,101088.09
2023-03-31T23:48:32.582Z,101087.25
2023-03-31T23:51:00.345Z,101088.09
2023-03-31T23:53:28.748Z,101094.91
2023-03-31T23:55:57.919Z,101094.03
2023-03-31T23:58:27.378Z,101094.03
